Time;durP1;ratioP1;P1;durP2;ratioP2;P2;SDS_P1;SDS_P2;PMS_P1;PMS_P2;Temp;Humidity;BMP_temperature;BMP_pressure;BME280_temperature;BME280_humidity;BME280_pressure;Samples;Min_cycle;Max_cycle;Signal;HPM_P1;HPM_P2
2023/10/05 00:00:27;;;;;;;4.40;2.83;;;;;;;20.24;58.33;97623.47;10284429;28;20081;-26
2023/10/05 00:05:21;;;;;;;3.15;2.22;;;;;;;20.21;58.33;97639.59;10293534;28;20505;-26
2023/10/05 00:10:23;;;;;;;3.35;3.03;;;;;;;20.24;58.14;97648.91;10290229;28;20110;-26
2023/10/05 00:15:23;;;;;;;4.18;2.72;;;;;;;20.22;58.24;97651.47;10284813;28;20046;-26
2023/10/05 00:20:31;;;;;;;2.72;2.47;;;;;;;20.23;58.10;97644.66;10287908;28;20462;-26
2023/10/05 00:25:32;;;;;;;2.70;2.08;;;;;;;20.23;57.86;97639.59;10282616;28;20039;-26
2023/10/05 00:30:33;;;;;;;2.63;2.28;;;;;;;20.23;57.99;97642.13;10293163;28;20050;-26
2023/10/05 00:35:36;;;;;;;3.55;2.45;;;;;;;20.23;58.19;97637.03;10287100;28;20031;-26
2023/10/05 00:40:41;;;;;;;2.80;2.38;;;;;;;20.23;57.93;97621.78;10284577;28;20070;-26
2023/10/05 00:45:46;;;;;;;2.40;2.10;;;;;;;20.21;57.76;97608.22;10287099;28;20095;-26
2023/10/05 00:50:47;;;;;;;3.58;2.33;;;;;;;20.22;57.70;97617.53;10280962;28;20158;-26
2023/10/05 00:55:57;;;;;;;2.93;2.40;;;;;;;20.23;57.51;97607.41;10286061;28;20189;-26
2023/10/05 01:01:05;;;;;;;3.17;2.20;;;;;;;20.22;57.59;97599.75;10288010;28;20042;-26
2023/10/05 01:06:29;;;;;;;2.65;2.03;;;;;;;20.23;57.53;97596.34;10286042;28;20093;-26
2023/10/05 01:11:43;;;;;;;3.47;2.53;;;;;;;20.22;57.49;97599.75;10286494;28;20034;-26
2023/10/05 01:16:45;;;;;;;3.15;2.38;;;;;;;20.23;57.28;97586.19;10285148;28;20054;-26
2023/10/05 01:21:45;;;;;;;2.22;1.83;;;;;;;20.22;57.19;97587.03;10281387;28;20426;-26
2023/10/05 01:26:46;;;;;;;3.37;1.93;;;;;;;20.23;57.17;97581.09;10282135;28;20030;-26
2023/10/05 01:31:47;;;;;;;2.90;2.07;;;;;;;20.22;57.15;97572.63;10291670;28;20043;-27
2023/10/05 01:36:47;;;;;;;2.97;2.30;;;;;;;20.21;57.37;97562.44;10286142;28;20042;-27
2023/10/05 01:41:48;;;;;;;3.17;1.87;;;;;;;20.21;57.08;97562.44;10291293;28;20039;-26
2023/10/05 01:46:48;;;;;;;1.92;1.73;;;;;;;20.20;57.15;97563.28;10278335;28;20073;-26
2023/10/05 01:51:52;;;;;;;2.22;1.80;;;;;;;20.21;56.97;97552.28;10278599;28;20045;-25
2023/10/05 01:57:01;;;;;;;3.50;2.10;;;;;;;20.21;56.90;97557.34;10282139;28;20039;-26
2023/10/05 02:02:01;;;;;;;4.60;2.42;;;;;;;20.21;56.92;97542.97;10284968;28;20043;-26
2023/10/05 02:07:02;;;;;;;2.40;1.60;;;;;;;20.20;56.88;97550.56;10279722;28;20042;-25
2023/10/05 02:12:06;;;;;;;3.17;1.63;;;;;;;20.21;56.84;97557.34;10286380;28;20290;-26
2023/10/05 02:17:13;;;;;;;2.28;1.95;;;;;;;20.20;56.82;97558.19;10284684;28;20058;-25
2023/10/05 02:22:22;;;;;;;2.42;1.88;;;;;;;20.20;56.81;97550.56;10279344;28;20074;-26
2023/10/05 02:27:26;;;;;;;2.65;2.10;;;;;;;20.19;56.74;97544.63;10284842;28;20027;-25
2023/10/05 02:32:27;;;;;;;2.97;2.10;;;;;;;20.20;56.34;97540.41;10283835;28;20034;-26
2023/10/05 02:37:28;;;;;;;2.15;1.73;;;;;;;20.19;56.63;97528.53;10272688;28;20097;-26
2023/10/05 02:42:28;;;;;;;2.33;1.75;;;;;;;20.20;56.73;97530.22;10275502;28;20043;-26
2023/10/05 02:47:29;;;;;;;2.07;1.63;;;;;;;20.19;56.47;97528.53;10281770;28;20525;-25
2023/10/05 02:52:32;;;;;;;2.15;1.67;;;;;;;20.20;56.65;97525.16;10281565;28;20027;-26
2023/10/05 02:57:33;;;;;;;1.90;1.55;;;;;;;20.18;56.52;97519.22;10279746;28;20476;-26
2023/10/05 03:02:40;;;;;;;3.50;2.17;;;;;;;20.17;56.60;97527.69;10284025;28;20090;-25
2023/10/05 03:07:43;;;;;;;2.25;1.63;;;;;;;20.17;56.45;97525.13;10274436;28;20062;-27
2023/10/05 03:12:44;;;;;;;2.03;1.50;;;;;;;20.18;56.59;97537.00;10283627;28;20035;-25
2023/10/05 03:17:46;;;;;;;1.88;1.40;;;;;;;20.18;56.38;97519.22;10287259;28;20412;-26
2023/10/05 03:22:47;;;;;;;1.65;1.40;;;;;;;20.18;56.49;97526.84;10284958;28;20122;-26
2023/10/05 03:27:48;;;;;;;3.40;2.00;;;;;;;20.17;56.37;97512.44;10283093;28;20111;-26
2023/10/05 03:32:50;;;;;;;2.00;1.50;;;;;;;20.17;56.04;97504.78;10289669;28;20037;-26
2023/10/05 03:37:52;;;;;;;2.00;1.50;;;;;;;20.18;55.91;97507.34;10289198;28;20031;-26
2023/10/05 03:42:57;;;;;;;2.58;2.08;;;;;;;20.12;55.98;97502.22;10286655;28;20054;-26
2023/10/05 03:48:01;;;;;;;2.75;1.92;;;;;;;20.16;55.78;97513.25;10280816;28;20141;-26
2023/10/05 03:53:06;;;;;;;2.97;1.60;;;;;;;20.19;55.77;97524.28;10296561;28;20105;-27
2023/10/05 03:58:07;;;;;;;3.95;1.75;;;;;;;20.20;56.20;97525.16;10269814;28;20512;-26
2023/10/05 04:03:08;;;;;;;2.28;1.50;;;;;;;20.21;55.74;97526.84;10281211;28;20041;-26
2023/10/05 04:08:12;;;;;;;1.48;1.10;;;;;;;20.21;55.69;97537.00;10275233;28;20041;-26
2023/10/05 04:13:23;;;;;;;2.00;1.50;;;;;;;20.23;55.85;97550.59;10281504;28;20045;-25
2023/10/05 04:18:24;;;;;;;2.58;1.27;;;;;;;20.24;55.51;97539.56;10284741;28;20089;-25
2023/10/05 04:23:28;;;;;;;2.40;1.20;;;;;;;20.24;55.65;97552.28;10262620;28;20042;-25
2023/10/05 04:28:34;;;;;;;1.63;1.20;;;;;;;20.23;56.02;97545.50;10282935;28;20027;-26
2023/10/05 04:33:36;;;;;;;1.55;1.20;;;;;;;20.23;55.80;97560.75;10287863;28;20114;-26
2023/10/05 04:38:36;;;;;;;1.55;1.25;;;;;;;20.24;55.92;97565.00;10279490;28;20042;-26
2023/10/05 04:43:38;;;;;;;4.47;1.57;;;;;;;20.23;55.03;97571.78;10285727;28;20413;-26
2023/10/05 04:48:38;;;;;;;3.83;1.45;;;;;;;19.81;53.69;97560.41;10278535;28;20125;-26
2023/10/05 04:53:42;;;;;;;4.15;1.75;;;;;;;19.76;52.67;97545.13;10287331;28;20502;-26
2023/10/05 04:58:53;;;;;;;5.35;1.70;;;;;;;20.02;53.41;97540.25;10286344;28;20042;-26
2023/10/05 05:04:12;;;;;;;3.70;1.65;;;;;;;20.11;54.21;97542.88;10280013;28;20037;-27
2023/10/05 05:09:12;;;;;;;6.15;2.10;;;;;;;19.96;54.27;97535.13;10286954;28;20611;-26
2023/10/05 05:14:13;;;;;;;5.47;1.87;;;;;;;19.96;53.65;97548.69;10284156;28;20026;-26
2023/10/05 05:19:14;;;;;;;8.37;2.30;;;;;;;19.96;54.12;97547.81;10282090;28;20293;-26
2023/10/05 05:24:14;;;;;;;3.55;1.63;;;;;;;19.85;54.15;97552.00;10282081;28;20043;-26
2023/10/05 05:29:14;;;;;;;8.40;2.13;;;;;;;19.98;54.17;97549.53;10286026;28;20405;-26
2023/10/05 05:34:15;;;;;;;4.77;1.60;;;;;;;19.72;52.86;97545.97;10284216;28;20101;-26
2023/10/05 05:39:15;;;;;;;3.00;1.70;;;;;;;19.84;53.27;97547.75;10277542;28;20043;-26
2023/10/05 05:44:20;;;;;;;3.20;1.43;;;;;;;19.95;53.77;97528.34;10283588;28;20497;-26
2023/10/05 05:49:23;;;;;;;4.20;1.67;;;;;;;20.02;54.00;97532.63;10283918;28;20497;-26
2023/10/05 05:54:24;;;;;;;4.43;1.83;;;;;;;20.06;54.20;97536.91;10276460;28;20055;-26
2023/10/05 05:59:24;;;;;;;2.10;1.30;;;;;;;20.08;54.06;97537.78;10278499;28;20066;-26
2023/10/05 06:04:28;;;;;;;2.53;1.47;;;;;;;20.09;54.25;97536.94;10287985;28;20053;-26
2023/10/05 06:09:33;;;;;;;2.25;2.00;;;;;;;20.10;54.45;97554.75;10275746;28;20314;-26
2023/10/05 06:14:34;;;;;;;3.05;1.90;;;;;;;20.09;54.17;97568.28;10282811;28;20109;-25
2023/10/05 06:19:36;;;;;;;2.15;1.40;;;;;;;20.10;54.19;97567.44;10285045;28;20110;-26
2023/10/05 06:24:42;;;;;;;2.78;1.33;;;;;;;20.09;54.46;97567.47;10277289;28;20121;-26
2023/10/05 06:29:42;;;;;;;2.47;1.52;;;;;;;20.08;54.34;97578.47;10280433;28;20453;-26
2023/10/05 06:34:42;;;;;;;3.15;1.88;;;;;;;20.12;54.18;97572.56;10284777;28;20037;-25
2023/10/05 06:39:43;;;;;;;4.40;1.45;;;;;;;20.11;54.22;97565.78;10276653;28;20039;-26
2023/10/05 06:44:44;;;;;;;3.73;2.10;;;;;;;20.10;54.39;97570.00;10279603;28;20038;-25
2023/10/05 06:49:45;;;;;;;2.85;2.13;;;;;;;20.08;54.32;97555.59;10282439;28;20035;-26
2023/10/05 06:54:45;;;;;;;1.90;1.43;;;;;;;20.11;54.34;97560.69;10285947;28;20134;-25
2023/10/05 06:59:45;;;;;;;4.43;1.47;;;;;;;20.10;54.47;97566.63;10286274;28;20413;-26
2023/10/05 07:04:46;;;;;;;2.90;1.40;;;;;;;20.12;54.45;97572.56;10291792;28;20038;-26
2023/10/05 07:09:46;;;;;;;2.37;1.77;;;;;;;20.13;54.16;97579.34;10292204;28;20105;-26
2023/10/05 07:14:46;;;;;;;1.43;1.03;;;;;;;20.11;54.05;97583.56;10275207;28;20035;-26
2023/10/05 07:19:49;;;;;;;2.57;1.20;;;;;;;20.13;54.33;97579.34;10291073;28;20038;-26
2023/10/05 07:24:50;;;;;;;2.50;1.30;;;;;;;20.12;54.13;97572.56;10284714;28;20039;-26
2023/10/05 07:29:51;;;;;;;5.68;1.38;;;;;;;20.12;54.20;97582.72;10290784;28;20485;-26
2023/10/05 07:34:51;;;;;;;1.73;1.13;;;;;;;20.13;54.25;97574.25;10291066;28;20101;-26
2023/10/05 07:39:52;;;;;;;1.83;1.37;;;;;;;20.14;54.01;97586.13;10288405;28;20045;-26
2023/10/05 07:44:52;;;;;;;4.30;1.40;;;;;;;20.13;53.99;97600.53;10284853;28;20152;-26
2023/10/05 07:49:53;;;;;;;1.77;1.30;;;;;;;20.14;54.19;97596.28;10286165;28;20035;-26
2023/10/05 07:54:54;;;;;;;1.42;1.10;;;;;;;20.14;54.20;97601.38;10287050;28;20027;-26
2023/10/05 07:59:55;;;;;;;1.98;1.17;;;;;;;20.13;54.35;97610.72;10280800;28;20042;-26
2023/10/05 08:04:55;;;;;;;1.92;1.13;;;;;;;20.13;54.06;97617.47;10284510;28;20135;-26
2023/10/05 08:09:55;;;;;;;1.40;1.00;;;;;;;20.14;54.31;97621.72;10285776;28;20086;-26
2023/10/05 08:14:56;;;;;;;1.57;1.10;;;;;;;20.14;54.37;97626.81;10290309;28;20038;-26
2023/10/05 08:19:56;;;;;;;1.50;1.23;;;;;;;20.14;54.09;97631.88;10289079;28;20085;-26
2023/10/05 08:25:00;;;;;;;1.97;1.20;;;;;;;20.13;54.40;97627.66;10288176;28;20113;-26
2023/10/05 08:30:00;;;;;;;1.45;1.05;;;;;;;20.13;54.33;97631.06;10271966;28;20034;-26
2023/10/05 08:35:07;;;;;;;1.17;0.70;;;;;;;20.13;54.30;97637.81;10282561;28;20034;-25
2023/10/05 08:41:00;;;;;;;3.45;1.52;;;;;;;20.11;54.26;97654.75;10281862;28;20034;-26
2023/10/05 08:45:38;;;;;;;1.48;1.00;;;;;;;20.12;54.66;97664.09;10275313;28;20141;-25
2023/10/05 08:50:42;;;;;;;1.95;1.30;;;;;;;20.13;54.51;97675.94;10275135;28;20054;-25
2023/10/05 08:55:45;;;;;;;1.52;1.08;;;;;;;20.12;54.70;97679.34;10284462;28;20125;-26
2023/10/05 09:00:46;;;;;;;2.10;1.10;;;;;;;20.07;54.91;97670.81;10281221;28;20038;-26
2023/10/05 09:06:21;;;;;;;1.13;0.82;;;;;;;20.09;54.92;97669.16;10283123;28;20465;-25
2023/10/05 09:11:28;;;;;;;1.75;1.27;;;;;;;20.11;54.77;97652.22;10285207;28;20513;-25
2023/10/05 09:16:41;;;;;;;2.15;0.85;;;;;;;20.10;54.75;97650.50;10274587;28;20072;-26
2023/10/05 09:21:51;;;;;;;1.70;0.90;;;;;;;20.10;54.53;97635.25;10281058;28;20038;-26
2023/10/05 09:26:53;;;;;;;1.33;1.05;;;;;;;20.12;54.74;97638.66;10282555;28;20038;-26
2023/10/05 09:31:55;;;;;;;1.20;1.00;;;;;;;20.09;54.72;97623.38;10287894;28;20035;-26
2023/10/05 09:36:55;;;;;;;1.30;1.08;;;;;;;20.13;54.73;97635.28;10289607;28;20023;-26
2023/10/05 09:42:01;;;;;;;1.63;0.93;;;;;;;20.12;54.78;97615.78;10285734;28;20039;-26
2023/10/05 09:47:01;;;;;;;1.27;0.80;;;;;;;20.13;54.68;97620.00;10280111;28;20042;-26
2023/10/05 09:52:02;;;;;;;1.00;0.80;;;;;;;20.13;54.68;97630.19;10291284;28;20041;-26
2023/10/05 09:57:10;;;;;;;1.15;0.80;;;;;;;20.12;54.73;97624.28;10267936;28;20410;-25
2023/10/05 10:02:18;;;;;;;1.77;0.90;;;;;;;20.13;55.00;97622.56;10287208;28;20034;-26
2023/10/05 10:07:22;;;;;;;1.48;0.82;;;;;;;20.13;54.97;97627.66;10283985;28;20042;-26
2023/10/05 10:12:25;;;;;;;1.73;0.93;;;;;;;20.14;54.67;97636.97;10287019;28;20098;-26
2023/10/05 10:17:33;;;;;;;1.67;0.95;;;;;;;20.13;54.83;97646.31;10289552;28;20062;-25
2023/10/05 10:22:56;;;;;;;1.60;0.75;;;;;;;20.14;54.72;97672.56;10280751;28;20499;-26
2023/10/05 10:28:15;;;;;;;1.35;1.10;;;;;;;20.13;54.81;97675.94;10285289;28;20374;-26
2023/10/05 10:33:27;;;;;;;1.02;0.70;;;;;;;20.15;54.79;97679.34;10288636;28;20043;-26
2023/10/05 10:38:28;;;;;;;2.67;1.00;;;;;;;20.14;54.93;97672.56;10285900;28;20118;-26
2023/10/05 10:43:30;;;;;;;4.47;1.35;;;;;;;20.12;55.07;97669.16;10281603;28;20485;-26
2023/10/05 10:48:36;;;;;;;5.80;2.03;;;;;;;20.07;55.79;97665.72;10283271;28;20035;-26
2023/10/05 10:53:41;;;;;;;11.60;2.28;;;;;;;20.03;55.75;97663.97;10273213;28;20516;-25
2023/10/05 10:58:44;;;;;;;6.60;2.05;;;;;;;20.12;55.77;97669.16;10284485;28;20050;-26
2023/10/05 11:03:54;;;;;;;9.88;1.80;;;;;;;20.08;55.93;97660.66;10282948;28;20573;-26
2023/10/05 11:08:59;;;;;;;5.85;1.95;;;;;;;20.10;56.08;97637.81;10286782;28;20035;-26
2023/10/05 11:14:05;;;;;;;9.60;2.75;;;;;;;20.11;55.56;97607.28;10284479;28;20177;-26
2023/10/05 11:19:12;;;;;;;;;;;;;;;20.18;55.49;97615.84;10281164;28;20042;-26
2023/10/05 11:24:18;;;;;;;6.60;2.13;;;;;;;20.18;55.57;97615.84;10290775;28;20370;-26
2023/10/05 11:29:20;;;;;;;6.53;2.20;;;;;;;20.19;55.55;97620.91;10282502;28;20417;-26
2023/10/05 11:34:28;;;;;;;10.93;2.17;;;;;;;20.21;55.60;97618.38;10287299;28;20085;-25
2023/10/05 11:39:35;;;;;;;5.65;2.28;;;;;;;20.22;55.43;97631.13;10289353;28;20058;-26
2023/10/05 11:44:35;;;;;;;;;;;;;;;20.20;55.66;97637.91;10278436;28;20046;-26
2023/10/05 11:49:41;;;;;;;10.90;3.05;;;;;;;20.25;55.40;97646.38;10282465;28;19925;-26
2023/10/05 11:54:44;;;;;;;5.43;3.45;;;;;;;20.28;54.80;97643.84;10286116;28;20031;-25
2023/10/05 11:59:45;;;;;;;5.32;3.42;;;;;;;20.29;54.75;97624.38;10279976;28;20046;-25
2023/10/05 12:04:45;;;;;;;6.00;3.35;;;;;;;20.28;55.31;97626.06;10279702;28;20070;-26
2023/10/05 12:09:47;;;;;;;6.38;2.53;;;;;;;20.27;54.62;97623.53;10281260;28;20043;-25
2023/10/05 12:14:47;;;;;;;7.50;3.00;;;;;;;20.27;55.02;97619.28;10278796;28;20533;-27
2023/10/05 12:19:51;;;;;;;4.63;2.43;;;;;;;20.27;55.09;97615.91;10292339;28;20039;-26
2023/10/05 12:24:51;;;;;;;7.03;2.42;;;;;;;20.28;55.18;97615.88;10283359;28;20406;-27
2023/10/05 12:29:52;;;;;;;22.93;5.03;;;;;;;20.30;55.42;97628.63;10279676;28;20043;-26
2023/10/05 12:34:53;;;;;;;4.95;2.33;;;;;;;20.29;55.17;97632.88;10284913;28;20109;-25
2023/10/05 12:39:54;;;;;;;8.23;2.30;;;;;;;20.29;55.24;97622.69;10292357;28;20101;-26
2023/10/05 12:44:55;;;;;;;10.43;2.65;;;;;;;20.27;55.37;97609.09;10284991;28;20034;-26
2023/10/05 12:49:55;;;;;;;6.57;2.20;;;;;;;20.28;55.16;97609.97;10281376;28;20035;-26
2023/10/05 12:54:56;;;;;;;10.15;3.13;;;;;;;20.30;54.99;97603.19;10281382;28;20034;-26
2023/10/05 12:59:57;;;;;;;6.18;2.60;;;;;;;20.30;55.05;97593.00;10292287;28;20049;-26
2023/10/05 13:04:59;;;;;;;4.00;2.40;;;;;;;20.27;55.48;97581.13;10278249;28;20737;-25
2023/10/05 13:10:02;;;;;;;6.32;2.55;;;;;;;20.27;55.01;97583.66;10288080;28;20096;-26
2023/10/05 13:15:03;;;;;;;10.02;2.63;;;;;;;20.27;55.49;97558.25;10279556;28;20023;-26
2023/10/05 13:20:04;;;;;;;4.15;2.75;;;;;;;20.25;55.32;97554.84;10286586;28;20081;-26
2023/10/05 13:25:07;;;;;;;5.53;2.53;;;;;;;20.26;55.43;97579.44;10286830;28;20512;-27
2023/10/05 13:30:10;;;;;;;8.25;3.30;;;;;;;20.28;55.10;97574.38;10285952;28;20038;-26
2023/10/05 13:35:10;;;;;;;9.32;3.55;;;;;;;20.30;55.02;97577.75;10272478;28;20096;-26
2023/10/05 13:40:15;;;;;;;7.60;2.83;;;;;;;20.28;55.31;97565.03;10285889;28;20489;-27
2023/10/05 13:45:20;;;;;;;5.90;2.97;;;;;;;20.26;54.73;97563.34;10282945;28;20084;-27
2023/10/05 13:50:23;;;;;;;5.03;2.33;;;;;;;20.26;53.99;97556.53;10275742;28;20038;-26
2023/10/05 13:55:25;;;;;;;6.57;2.53;;;;;;;20.28;55.01;97564.19;10285206;28;20090;-26
2023/10/05 14:00:26;;;;;;;21.95;3.28;;;;;;;20.28;53.26;97592.16;10287265;28;20046;-26
2023/10/05 14:05:26;;;;;;;25.42;4.03;;;;;;;20.29;52.46;97591.31;10286993;28;20038;-26
2023/10/05 14:10:27;;;;;;;11.23;3.30;;;;;;;20.27;52.80;97587.94;10278426;28;20051;-26
2023/10/05 14:15:27;;;;;;;20.90;3.53;;;;;;;20.25;53.47;97585.34;10274288;28;20042;-26
2023/10/05 14:20:28;;;;;;;9.60;2.53;;;;;;;20.25;52.10;97579.44;10286254;28;20502;-26
2023/10/05 14:25:28;;;;;;;10.67;2.77;;;;;;;20.22;52.73;97587.03;10283952;28;20290;-27
2023/10/05 14:30:29;;;;;;;5.82;2.50;;;;;;;20.26;51.59;97579.44;10287764;28;20294;-27
2023/10/05 14:35:30;;;;;;;13.67;4.73;;;;;;;20.13;52.33;97574.25;10273948;28;20031;-26
2023/10/05 14:40:31;;;;;;;7.40;2.83;;;;;;;20.24;54.09;97575.16;10285700;28;20286;-25
2023/10/05 14:45:31;;;;;;;6.05;2.30;;;;;;;20.26;54.44;97565.88;10283951;28;20046;-26
2023/10/05 14:50:32;;;;;;;6.75;2.15;;;;;;;20.25;53.19;97559.09;10277877;28;20049;-26
2023/10/05 14:55:33;;;;;;;8.15;2.65;;;;;;;20.24;53.37;97547.19;10284549;28;20035;-26
2023/10/05 15:00:36;;;;;;;5.18;2.22;;;;;;;20.21;52.56;97539.56;10282176;28;20070;-26
2023/10/05 15:05:36;;;;;;;4.00;1.85;;;;;;;20.18;53.14;97530.22;10284171;28;20046;-26
2023/10/05 15:10:36;;;;;;;3.87;2.13;;;;;;;20.18;53.27;97539.56;10291056;28;20050;-26
2023/10/05 15:15:37;;;;;;;4.20;1.93;;;;;;;20.14;52.46;97530.19;10284852;28;20085;-26
2023/10/05 15:20:40;;;;;;;5.30;1.92;;;;;;;20.10;52.70;97543.72;10290378;28;20038;-26
2023/10/05 15:25:40;;;;;;;6.25;2.17;;;;;;;20.13;52.23;97544.59;10289980;28;20035;-26
2023/10/05 15:30:41;;;;;;;6.43;2.25;;;;;;;20.05;52.55;97525.03;10286013;28;20413;-26
2023/10/05 15:35:42;;;;;;;6.25;2.25;;;;;;;20.11;53.65;97545.44;10283898;28;20038;-26
2023/10/05 15:40:43;;;;;;;4.60;3.07;;;;;;;20.12;53.18;97548.00;10291650;28;20086;-26
2023/10/05 15:45:44;;;;;;;4.43;2.20;;;;;;;20.10;53.48;97559.00;10289003;28;20356;-27
2023/10/05 15:50:47;;;;;;;4.53;2.58;;;;;;;20.12;52.85;97572.56;10286814;28;20042;-26
2023/10/05 15:55:48;;;;;;;7.65;2.20;;;;;;;20.08;52.45;97564.06;10287133;28;20146;-26
2023/10/05 16:00:48;;;;;;;6.97;2.63;;;;;;;20.08;53.58;97571.69;10280993;28;20041;-26
2023/10/05 16:05:48;;;;;;;12.07;2.58;;;;;;;20.03;53.10;97567.38;10284908;28;20045;-26
2023/10/05 16:10:50;;;;;;;4.30;2.40;;;;;;;20.10;53.44;97571.69;10293003;28;20042;-26
2023/10/05 16:15:50;;;;;;;10.73;2.47;;;;;;;20.14;53.51;97578.50;10285648;28;20037;-26
2023/10/05 16:20:51;;;;;;;4.77;2.03;;;;;;;20.19;53.88;97575.13;10284377;28;20056;-26
2023/10/05 16:25:51;;;;;;;5.13;2.00;;;;;;;20.21;53.95;97577.69;10287734;28;20444;-26
2023/10/05 16:30:53;;;;;;;5.75;2.13;;;;;;;20.20;54.17;97579.41;10285380;28;20037;-26
2023/10/05 16:35:54;;;;;;;4.18;2.10;;;;;;;20.23;54.43;97586.19;10288365;28;20031;-26
2023/10/05 16:40:56;;;;;;;4.60;2.00;;;;;;;20.16;53.93;97581.88;10287423;28;20623;-27
2023/10/05 16:45:57;;;;;;;6.10;3.30;;;;;;;20.16;53.88;97584.44;10277204;28;20158;-26
2023/10/05 16:50:58;;;;;;;6.13;2.90;;;;;;;20.15;53.75;97588.69;10277644;28;20101;-25
2023/10/05 16:55:58;;;;;;;8.83;2.97;;;;;;;20.11;54.01;97565.78;10288011;28;20400;-24
2023/10/05 17:00:59;;;;;;;5.85;2.70;;;;;;;20.16;54.25;97566.63;10278617;28;20300;-26
2023/10/05 17:06:00;;;;;;;6.22;2.28;;;;;;;20.15;54.92;97562.41;10273647;28;20094;-27
2023/10/05 17:11:00;;;;;;;6.03;2.47;;;;;;;20.15;53.85;97580.19;10280848;28;20051;-26
2023/10/05 17:16:00;;;;;;;5.03;2.37;;;;;;;20.13;53.23;97590.38;10283938;28;20026;-26
2023/10/05 17:21:01;;;;;;;9.37;2.60;;;;;;;20.11;53.87;97596.28;10279069;28;20050;-26
2023/10/05 17:26:04;;;;;;;4.23;2.20;;;;;;;20.12;54.41;97597.97;10280476;28;20098;-26
2023/10/05 17:31:05;;;;;;;5.45;2.17;;;;;;;20.14;54.67;97606.47;10287497;28;20065;-26
2023/10/05 17:36:05;;;;;;;5.47;2.00;;;;;;;20.18;54.85;97613.28;10280993;28;20037;-27
2023/10/05 17:41:08;;;;;;;8.95;3.10;;;;;;;20.14;55.17;97607.31;10282848;28;20051;-27
2023/10/05 17:46:08;;;;;;;7.85;2.20;;;;;;;20.15;54.42;97619.19;10279543;28;20097;-27
2023/10/05 17:51:11;;;;;;;4.40;1.70;;;;;;;20.16;54.65;97630.19;10280324;28;20553;-26
2023/10/05 17:56:11;;;;;;;3.47;1.23;;;;;;;20.09;54.64;97633.56;10281643;28;20073;-26
2023/10/05 18:01:16;;;;;;;1.73;1.40;;;;;;;20.11;54.54;97629.34;10285642;28;20042;-25
2023/10/05 18:06:16;;;;;;;3.15;1.85;;;;;;;20.15;54.69;97643.75;10280490;28;20069;-26
2023/10/05 18:11:21;;;;;;;2.17;1.47;;;;;;;20.14;54.42;97632.75;10278824;28;20122;-25
2023/10/05 18:16:21;;;;;;;7.65;1.90;;;;;;;20.12;55.16;97625.94;10281207;28;20030;-26
2023/10/05 18:21:22;;;;;;;4.13;2.17;;;;;;;20.15;55.38;97623.41;10275350;28;20410;-27
2023/10/05 18:26:22;;;;;;;5.45;2.70;;;;;;;20.13;55.38;97625.97;10279559;28;20520;-27
2023/10/05 18:31:23;;;;;;;5.30;1.90;;;;;;;20.13;55.66;97625.09;10278793;28;20526;-26
2023/10/05 18:36:24;;;;;;;4.00;1.88;;;;;;;20.13;55.71;97620.00;10281682;28;20027;-26
2023/10/05 18:41:24;;;;;;;4.63;2.20;;;;;;;20.12;55.73;97618.31;10285491;28;20042;-25
2023/10/05 18:46:25;;;;;;;4.37;3.03;;;;;;;20.12;55.73;97613.22;10287283;28;20074;-25
2023/10/05 18:51:25;;;;;;;6.80;2.60;;;;;;;20.13;55.44;97610.72;10285251;28;20030;-27
2023/10/05 18:56:31;;;;;;;3.23;1.87;;;;;;;20.12;55.73;97613.22;10282902;28;20038;-25
2023/10/05 19:01:32;;;;;;;3.58;1.90;;;;;;;20.09;55.86;97616.59;10278235;28;20027;-27
2023/10/05 19:06:34;;;;;;;7.32;2.53;;;;;;;20.10;55.85;97625.09;10291866;28;20027;-26
2023/10/05 19:11:38;;;;;;;6.30;1.55;;;;;;;20.07;55.59;97627.59;10290552;28;20034;-26
2023/10/05 19:16:39;;;;;;;3.58;1.67;;;;;;;20.10;55.53;97630.19;10291437;28;20393;-26
2023/10/05 19:21:42;;;;;;;3.53;2.08;;;;;;;20.14;54.96;97642.91;10286750;28;20049;-26
2023/10/05 19:26:44;;;;;;;4.70;2.00;;;;;;;20.13;55.61;97645.44;10280517;28;20038;-27
2023/10/05 19:31:45;;;;;;;5.38;2.20;;;;;;;20.12;55.43;97643.75;10284061;28;20023;-25
2023/10/05 19:36:45;;;;;;;2.57;1.83;;;;;;;20.11;55.31;97647.13;10287321;28;20469;-26
2023/10/05 19:41:45;;;;;;;5.13;2.33;;;;;;;20.13;55.29;97646.31;10282316;28;20282;-27
2023/10/05 19:46:46;;;;;;;4.13;2.13;;;;;;;20.13;55.34;97648.00;10280542;28;20026;-26
2023/10/05 19:51:47;;;;;;;3.22;1.80;;;;;;;20.12;55.33;97639.53;10282764;28;20300;-26
2023/10/05 19:56:50;;;;;;;4.63;2.20;;;;;;;20.03;55.59;97651.25;10276372;28;20025;-26
2023/10/05 20:01:52;;;;;;;3.83;2.00;;;;;;;19.99;56.01;97642.75;10288975;28;20038;-27
2023/10/05 20:06:52;;;;;;;4.53;1.98;;;;;;;20.05;55.52;97647.94;10284267;28;20027;-26
2023/10/05 20:11:53;;;;;;;3.23;1.87;;;;;;;20.00;55.45;97651.25;10282317;28;20027;-26
2023/10/05 20:16:53;;;;;;;3.70;1.80;;;;;;;19.99;55.41;97657.13;10287360;28;20019;-27
2023/10/05 20:21:54;;;;;;;2.80;1.60;;;;;;;19.97;54.91;97669.00;10284531;28;20716;-27
2023/10/05 20:26:54;;;;;;;2.42;1.80;;;;;;;19.94;54.93;97659.63;10287873;28;20294;-26
2023/10/05 20:31:56;;;;;;;3.10;1.97;;;;;;;19.96;54.82;97654.59;10284378;28;20035;-26
2023/10/05 20:36:56;;;;;;;3.00;1.67;;;;;;;19.93;54.69;97647.78;10278838;28;20289;-26
2023/10/05 20:41:57;;;;;;;3.53;1.57;;;;;;;19.93;54.60;97652.03;10286455;28;20041;-26
2023/10/05 20:46:59;;;;;;;2.88;1.85;;;;;;;19.92;54.66;97658.78;10278654;28;20023;-26
2023/10/05 20:51:59;;;;;;;1.92;1.48;;;;;;;19.90;54.28;97651.97;10272505;28;20057;-26
2023/10/05 20:57:00;;;;;;;2.78;1.85;;;;;;;19.91;54.29;97653.72;10269912;28;20050;-26
2023/10/05 21:02:00;;;;;;;2.20;1.77;;;;;;;19.90;54.05;97641.81;10277449;28;20027;-25
2023/10/05 21:07:06;;;;;;;3.80;1.83;;;;;;;19.90;54.08;97636.72;10273003;28;20031;-26
2023/10/05 21:12:07;;;;;;;;;;;;;;;19.89;53.86;97624.88;10273916;28;20743;-26
2023/10/05 21:17:07;;;;;;;2.90;1.80;;;;;;;19.85;53.91;97616.34;10270837;28;19952;-26
2023/10/05 21:22:08;;;;;;;2.63;1.63;;;;;;;19.84;53.87;97607.03;10276887;28;20031;-26
2023/10/05 21:27:08;;;;;;;3.30;2.23;;;;;;;19.84;53.70;97607.03;10274134;28;20057;-26
2023/10/05 21:32:09;;;;;;;3.17;2.20;;;;;;;19.85;53.59;97613.81;10269768;28;20027;-26
2023/10/05 21:37:10;;;;;;;2.35;1.65;;;;;;;19.81;53.80;97616.31;10278198;28;20031;-26
2023/10/05 21:42:10;;;;;;;3.22;2.25;;;;;;;19.84;53.53;97621.44;10269921;28;20050;-27
2023/10/05 21:47:10;;;;;;;6.07;3.03;;;;;;;19.81;53.50;97598.53;10261579;28;20041;-27
2023/10/05 21:52:11;;;;;;;2.87;1.90;;;;;;;19.82;53.48;97601.09;10276425;28;20022;-26
2023/10/05 21:57:11;;;;;;;4.93;2.20;;;;;;;19.81;53.40;97607.03;10266110;28;20082;-27
2023/10/05 22:02:11;;;;;;;4.10;1.80;;;;;;;19.83;53.29;97610.41;10268764;28;20163;-27
2023/10/05 22:07:12;;;;;;;3.10;2.00;;;;;;;19.82;53.76;97612.94;10273874;28;20034;-26
2023/10/05 22:12:13;;;;;;;2.58;1.80;;;;;;;19.80;53.35;97619.69;10263141;28;20626;-27
2023/10/05 22:17:14;;;;;;;2.92;2.38;;;;;;;19.80;53.00;97617.16;10275431;28;20085;-26
2023/10/05 22:22:14;;;;;;;4.67;1.83;;;;;;;19.79;53.22;97618.00;10261390;28;20074;-26
2023/10/05 22:27:14;;;;;;;3.23;1.90;;;;;;;19.79;53.38;97625.63;10260851;28;20055;-26
2023/10/05 22:32:15;;;;;;;3.53;2.27;;;;;;;19.79;53.16;97620.53;10271282;28;20038;-26
2023/10/05 22:37:15;;;;;;;2.73;1.87;;;;;;;19.78;53.08;97629.00;10267855;28;20027;-26
2023/10/05 22:42:15;;;;;;;2.73;2.10;;;;;;;19.77;53.22;97620.50;10266890;28;20038;-27
2023/10/05 22:47:16;;;;;;;3.53;2.17;;;;;;;19.79;53.03;97628.16;10273900;28;20031;-27
2023/10/05 22:52:16;;;;;;;3.00;2.17;;;;;;;19.77;53.18;97627.31;10267951;28;20042;-26
2023/10/05 22:57:17;;;;;;;3.50;2.53;;;;;;;19.75;52.95;97626.44;10271528;28;20073;-26
2023/10/05 23:02:17;;;;;;;3.10;2.22;;;;;;;19.74;53.00;97629.78;10267163;28;20037;-26
2023/10/05 23:07:18;;;;;;;5.53;2.47;;;;;;;19.74;52.91;97639.97;10264116;28;20035;-26
2023/10/05 23:12:18;;;;;;;4.07;2.33;;;;;;;19.73;52.83;97639.13;10265189;28;20644;-26
2023/10/05 23:17:23;;;;;;;3.13;2.22;;;;;;;19.76;52.92;97643.41;10262616;28;20438;-26
2023/10/05 23:22:23;;;;;;;3.10;2.00;;;;;;;19.74;52.92;97645.03;10260617;28;20034;-26